sensor_id;sensor_type;location;lat;lon;timestamp;P1;durP1;ratioP1;P2;durP2;ratioP2
13421;SDS011;6782;55.904;13.396;2022-07-10T00:01:02;15.83;;;4.27;;
13421;SDS011;6782;55.904;13.396;2022-07-10T00:03:49;11.37;;;3.63;;
13421;SDS011;6782;55.904;13.396;2022-07-10T00:06:36;11.10;;;4.17;;
13421;SDS011;6782;55.904;13.396;2022-07-10T00:09:26;13.03;;;4.10;;
13421;SDS011;6782;55.904;13.396;2022-07-10T00:12:13;12.40;;;3.77;;
13421;SDS011;6782;55.904;13.396;2022-07-10T00:15:00;12.90;;;3.77;;
13421;SDS011;6782;55.904;13.396;2022-07-10T00:17:49;13.17;;;3.80;;
13421;SDS011;6782;55.904;13.396;2022-07-10T00:20:36;12.83;;;4.43;;
13421;SDS011;6782;55.904;13.396;2022-07-10T00:23:23;10.43;;;3.77;;
13421;SDS011;6782;55.904;13.396;2022-07-10T00:26:09;11.80;;;3.93;;
13421;SDS011;6782;55.904;13.396;2022-07-10T00:28:56;16.70;;;3.97;;
13421;SDS011;6782;55.904;13.396;2022-07-10T00:31:43;13.70;;;4.30;;
13421;SDS011;6782;55.904;13.396;2022-07-10T00:34:31;12.70;;;4.47;;
13421;SDS011;6782;55.904;13.396;2022-07-10T00:37:18;13.50;;;4.07;;
13421;SDS011;6782;55.904;13.396;2022-07-10T00:40:07;16.10;;;4.33;;
13421;SDS011;6782;55.904;13.396;2022-07-10T00:42:54;16.63;;;4.07;;
13421;SDS011;6782;55.904;13.396;2022-07-10T00:45:41;12.40;;;3.90;;
13421;SDS011;6782;55.904;13.396;2022-07-10T00:48:28;13.43;;;4.10;;
13421;SDS011;6782;55.904;13.396;2022-07-10T00:51:17;12.70;;;4.10;;
13421;SDS011;6782;55.904;13.396;2022-07-10T00:54:05;11.90;;;3.80;;
13421;SDS011;6782;55.904;13.396;2022-07-10T00:56:52;17.30;;;4.30;;
13421;SDS011;6782;55.904;13.396;2022-07-10T00:59:40;16.37;;;4.67;;
13421;SDS011;6782;55.904;13.396;2022-07-10T01:02:27;16.07;;;4.13;;
13421;SDS011;6782;55.904;13.396;2022-07-10T01:05:14;12.93;;;4.03;;
13421;SDS011;6782;55.904;13.396;2022-07-10T01:08:03;12.23;;;4.23;;
13421;SDS011;6782;55.904;13.396;2022-07-10T01:10:50;14.77;;;4.10;;
13421;SDS011;6782;55.904;13.396;2022-07-10T01:13:37;14.77;;;3.80;;
13421;SDS011;6782;55.904;13.396;2022-07-10T01:16:25;16.43;;;4.27;;
13421;SDS011;6782;55.904;13.396;2022-07-10T01:19:12;13.93;;;4.07;;
13421;SDS011;6782;55.904;13.396;2022-07-10T01:22:00;13.90;;;3.90;;
13421;SDS011;6782;55.904;13.396;2022-07-10T01:24:47;14.93;;;3.70;;
13421;SDS011;6782;55.904;13.396;2022-07-10T01:27:34;12.17;;;4.43;;
13421;SDS011;6782;55.904;13.396;2022-07-10T01:30:21;17.87;;;4.10;;
13421;SDS011;6782;55.904;13.396;2022-07-10T01:33:09;17.60;;;4.00;;
13421;SDS011;6782;55.904;13.396;2022-07-10T01:35:56;15.70;;;3.90;;
13421;SDS011;6782;55.904;13.396;2022-07-10T01:38:45;13.57;;;4.20;;
13421;SDS011;6782;55.904;13.396;2022-07-10T01:41:32;22.00;;;4.70;;
13421;SDS011;6782;55.904;13.396;2022-07-10T01:44:20;13.20;;;3.93;;
13421;SDS011;6782;55.904;13.396;2022-07-10T01:47:06;16.13;;;4.20;;
13421;SDS011;6782;55.904;13.396;2022-07-10T01:49:54;13.70;;;3.73;;
13421;SDS011;6782;55.904;13.396;2022-07-10T01:52:41;15.10;;;3.87;;
13421;SDS011;6782;55.904;13.396;2022-07-10T01:55:29;21.20;;;4.43;;
13421;SDS011;6782;55.904;13.396;2022-07-10T01:58:16;14.10;;;4.67;;
13421;SDS011;6782;55.904;13.396;2022-07-10T02:01:03;11.57;;;3.93;;
13421;SDS011;6782;55.904;13.396;2022-07-10T02:03:51;17.13;;;4.23;;
13421;SDS011;6782;55.904;13.396;2022-07-10T02:07:04;20.20;;;4.40;;
13421;SDS011;6782;55.904;13.396;2022-07-10T02:09:51;16.23;;;3.83;;
13421;SDS011;6782;55.904;13.396;2022-07-10T02:12:39;12.50;;;3.97;;
13421;SDS011;6782;55.904;13.396;2022-07-10T02:15:26;16.90;;;4.40;;
13421;SDS011;6782;55.904;13.396;2022-07-10T02:18:13;11.30;;;3.87;;
13421;SDS011;6782;55.904;13.396;2022-07-10T02:21:00;18.83;;;4.30;;
13421;SDS011;6782;55.904;13.396;2022-07-10T02:23:47;13.33;;;4.10;;
13421;SDS011;6782;55.904;13.396;2022-07-10T02:26:34;15.17;;;4.30;;
13421;SDS011;6782;55.904;13.396;2022-07-10T02:29:22;12.37;;;3.80;;
13421;SDS011;6782;55.904;13.396;2022-07-10T02:32:10;17.33;;;3.93;;
13421;SDS011;6782;55.904;13.396;2022-07-10T02:34:57;14.17;;;3.70;;
13421;SDS011;6782;55.904;13.396;2022-07-10T02:37:43;15.73;;;4.13;;
13421;SDS011;6782;55.904;13.396;2022-07-10T02:40:30;12.87;;;3.97;;
13421;SDS011;6782;55.904;13.396;2022-07-10T02:43:17;11.73;;;4.10;;
13421;SDS011;6782;55.904;13.396;2022-07-10T02:46:06;12.87;;;3.80;;
13421;SDS011;6782;55.904;13.396;2022-07-10T02:48:53;14.97;;;4.30;;
13421;SDS011;6782;55.904;13.396;2022-07-10T02:51:40;15.33;;;4.17;;
13421;SDS011;6782;55.904;13.396;2022-07-10T02:54:27;19.17;;;4.10;;
13421;SDS011;6782;55.904;13.396;2022-07-10T02:57:14;14.90;;;3.87;;
13421;SDS011;6782;55.904;13.396;2022-07-10T03:00:00;15.43;;;4.10;;
13421;SDS011;6782;55.904;13.396;2022-07-10T03:02:49;18.73;;;4.33;;
13421;SDS011;6782;55.904;13.396;2022-07-10T03:05:36;14.47;;;4.53;;
13421;SDS011;6782;55.904;13.396;2022-07-10T03:08:23;17.73;;;4.40;;
13421;SDS011;6782;55.904;13.396;2022-07-10T03:11:10;15.07;;;4.30;;
13421;SDS011;6782;55.904;13.396;2022-07-10T03:13:57;11.90;;;3.60;;
13421;SDS011;6782;55.904;13.396;2022-07-10T03:16:44;12.30;;;3.90;;
13421;SDS011;6782;55.904;13.396;2022-07-10T03:19:32;21.70;;;4.37;;
13421;SDS011;6782;55.904;13.396;2022-07-10T03:22:19;13.37;;;4.57;;
13421;SDS011;6782;55.904;13.396;2022-07-10T03:25:06;16.43;;;4.37;;
13421;SDS011;6782;55.904;13.396;2022-07-10T03:27:54;15.40;;;4.20;;
13421;SDS011;6782;55.904;13.396;2022-07-10T03:30:41;11.73;;;4.23;;
13421;SDS011;6782;55.904;13.396;2022-07-10T03:33:28;16.67;;;3.87;;
13421;SDS011;6782;55.904;13.396;2022-07-10T03:36:16;16.00;;;4.18;;
13421;SDS011;6782;55.904;13.396;2022-07-10T03:39:03;11.37;;;3.30;;
13421;SDS011;6782;55.904;13.396;2022-07-10T03:41:50;11.07;;;3.47;;
13421;SDS011;6782;55.904;13.396;2022-07-10T03:44:37;11.75;;;3.55;;
13421;SDS011;6782;55.904;13.396;2022-07-10T03:47:24;11.00;;;3.67;;
13421;SDS011;6782;55.904;13.396;2022-07-10T03:50:11;12.23;;;3.70;;
13421;SDS011;6782;55.904;13.396;2022-07-10T03:52:59;9.15;;;3.45;;
13421;SDS011;6782;55.904;13.396;2022-07-10T03:55:46;11.55;;;3.85;;
13421;SDS011;6782;55.904;13.396;2022-07-10T03:58:33;11.67;;;3.77;;
13421;SDS011;6782;55.904;13.396;2022-07-10T04:01:19;16.57;;;3.93;;
13421;SDS011;6782;55.904;13.396;2022-07-10T04:04:06;11.27;;;3.33;;
13421;SDS011;6782;55.904;13.396;2022-07-10T04:06:53;12.45;;;3.47;;
13421;SDS011;6782;55.904;13.396;2022-07-10T04:09:43;12.00;;;3.65;;
13421;SDS011;6782;55.904;13.396;2022-07-10T04:12:30;12.52;;;3.70;;
13421;SDS011;6782;55.904;13.396;2022-07-10T04:15:17;8.45;;;3.22;;
13421;SDS011;6782;55.904;13.396;2022-07-10T04:18:05;10.43;;;3.00;;
13421;SDS011;6782;55.904;13.396;2022-07-10T04:20:52;10.02;;;3.20;;
13421;SDS011;6782;55.904;13.396;2022-07-10T04:23:39;11.10;;;3.45;;
13421;SDS011;6782;55.904;13.396;2022-07-10T04:26:27;9.50;;;2.67;;
13421;SDS011;6782;55.904;13.396;2022-07-10T04:29:14;11.57;;;3.10;;
13421;SDS011;6782;55.904;13.396;2022-07-10T04:32:02;7.75;;;3.03;;
13421;SDS011;6782;55.904;13.396;2022-07-10T04:34:49;11.48;;;3.20;;
13421;SDS011;6782;55.904;13.396;2022-07-10T04:37:36;13.23;;;3.30;;
13421;SDS011;6782;55.904;13.396;2022-07-10T04:40:24;9.23;;;3.08;;
13421;SDS011;6782;55.904;13.396;2022-07-10T04:43:12;9.65;;;2.95;;
13421;SDS011;6782;55.904;13.396;2022-07-10T04:45:59;9.15;;;3.35;;
13421;SDS011;6782;55.904;13.396;2022-07-10T04:48:46;10.55;;;3.28;;
13421;SDS011;6782;55.904;13.396;2022-07-10T04:51:33;9.02;;;2.88;;
13421;SDS011;6782;55.904;13.396;2022-07-10T04:54:20;8.63;;;2.85;;
13421;SDS011;6782;55.904;13.396;2022-07-10T04:57:07;7.72;;;3.17;;
13421;SDS011;6782;55.904;13.396;2022-07-10T04:59:55;8.07;;;2.92;;
13421;SDS011;6782;55.904;13.396;2022-07-10T05:02:43;9.35;;;2.70;;
13421;SDS011;6782;55.904;13.396;2022-07-10T05:05:30;10.52;;;2.70;;
13421;SDS011;6782;55.904;13.396;2022-07-10T05:08:17;10.90;;;3.55;;
13421;SDS011;6782;55.904;13.396;2022-07-10T05:11:04;8.40;;;2.65;;
13421;SDS011;6782;55.904;13.396;2022-07-10T05:13:51;8.80;;;2.72;;
13421;SDS011;6782;55.904;13.396;2022-07-10T05:16:39;13.15;;;3.13;;
13421;SDS011;6782;55.904;13.396;2022-07-10T05:19:26;11.40;;;2.65;;
13421;SDS011;6782;55.904;13.396;2022-07-10T05:22:14;10.45;;;3.42;;
13421;SDS011;6782;55.904;13.396;2022-07-10T05:25:01;9.75;;;2.92;;
13421;SDS011;6782;55.904;13.396;2022-07-10T05:27:48;9.82;;;2.67;;
13421;SDS011;6782;55.904;13.396;2022-07-10T05:30:35;10.07;;;2.65;;
13421;SDS011;6782;55.904;13.396;2022-07-10T05:33:23;7.95;;;2.38;;
13421;SDS011;6782;55.904;13.396;2022-07-10T05:36:11;11.55;;;3.00;;
13421;SDS011;6782;55.904;13.396;2022-07-10T05:38:58;14.18;;;3.15;;
13421;SDS011;6782;55.904;13.396;2022-07-10T05:41:45;8.05;;;2.80;;
13421;SDS011;6782;55.904;13.396;2022-07-10T05:44:32;8.70;;;2.83;;
13421;SDS011;6782;55.904;13.396;2022-07-10T05:47:19;7.60;;;2.58;;
13421;SDS011;6782;55.904;13.396;2022-07-10T05:50:08;9.05;;;2.33;;
13421;SDS011;6782;55.904;13.396;2022-07-10T05:52:56;12.32;;;2.70;;
13421;SDS011;6782;55.904;13.396;2022-07-10T05:55:43;10.90;;;3.08;;
13421;SDS011;6782;55.904;13.396;2022-07-10T05:58:30;11.43;;;2.50;;
13421;SDS011;6782;55.904;13.396;2022-07-10T06:01:17;7.40;;;2.33;;
13421;SDS011;6782;55.904;13.396;2022-07-10T06:04:04;7.15;;;2.67;;
13421;SDS011;6782;55.904;13.396;2022-07-10T06:06:52;7.53;;;2.33;;
13421;SDS011;6782;55.904;13.396;2022-07-10T06:09:39;10.63;;;2.88;;
13421;SDS011;6782;55.904;13.396;2022-07-10T06:12:26;7.97;;;2.58;;
13421;SDS011;6782;55.904;13.396;2022-07-10T06:15:13;8.98;;;2.30;;
13421;SDS011;6782;55.904;13.396;2022-07-10T06:18:00;9.35;;;2.67;;
13421;SDS011;6782;55.904;13.396;2022-07-10T06:20:47;7.47;;;2.63;;
13421;SDS011;6782;55.904;13.396;2022-07-10T06:23:36;6.25;;;2.53;;
13421;SDS011;6782;55.904;13.396;2022-07-10T06:26:23;7.65;;;2.08;;
13421;SDS011;6782;55.904;13.396;2022-07-10T06:29:10;6.85;;;2.10;;
13421;SDS011;6782;55.904;13.396;2022-07-10T06:31:57;5.07;;;2.22;;
13421;SDS011;6782;55.904;13.396;2022-07-10T06:34:44;5.90;;;2.25;;
13421;SDS011;6782;55.904;13.396;2022-07-10T06:37:31;10.77;;;2.53;;
13421;SDS011;6782;55.904;13.396;2022-07-10T06:40:19;11.40;;;2.65;;
13421;SDS011;6782;55.904;13.396;2022-07-10T06:43:07;8.88;;;2.25;;
13421;SDS011;6782;55.904;13.396;2022-07-10T06:45:54;7.80;;;1.88;;
13421;SDS011;6782;55.904;13.396;2022-07-10T06:48:41;10.52;;;2.45;;
13421;SDS011;6782;55.904;13.396;2022-07-10T06:51:28;8.07;;;2.00;;
13421;SDS011;6782;55.904;13.396;2022-07-10T06:54:15;9.63;;;2.30;;
13421;SDS011;6782;55.904;13.396;2022-07-10T06:57:04;10.32;;;2.20;;
13421;SDS011;6782;55.904;13.396;2022-07-10T06:59:51;7.32;;;2.38;;
13421;SDS011;6782;55.904;13.396;2022-07-10T07:02:38;6.88;;;2.05;;
13421;SDS011;6782;55.904;13.396;2022-07-10T07:05:27;7.43;;;2.28;;
13421;SDS011;6782;55.904;13.396;2022-07-10T07:08:14;7.65;;;2.15;;
13421;SDS011;6782;55.904;13.396;2022-07-10T07:11:01;5.38;;;1.95;;
13421;SDS011;6782;55.904;13.396;2022-07-10T07:13:50;5.10;;;1.92;;
13421;SDS011;6782;55.904;13.396;2022-07-10T07:16:38;5.13;;;1.88;;
13421;SDS011;6782;55.904;13.396;2022-07-10T07:19:27;5.10;;;1.70;;
13421;SDS011;6782;55.904;13.396;2022-07-10T07:22:34;8.90;;;2.08;;
13421;SDS011;6782;55.904;13.396;2022-07-10T07:25:38;7.43;;;2.28;;
13421;SDS011;6782;55.904;13.396;2022-07-10T07:28:27;7.47;;;2.13;;
13421;SDS011;6782;55.904;13.396;2022-07-10T07:31:15;6.22;;;2.22;;
13421;SDS011;6782;55.904;13.396;2022-07-10T07:34:03;5.60;;;2.05;;
13421;SDS011;6782;55.904;13.396;2022-07-10T07:36:50;6.13;;;1.77;;
13421;SDS011;6782;55.904;13.396;2022-07-10T07:39:37;6.45;;;1.90;;
13421;SDS011;6782;55.904;13.396;2022-07-10T07:42:24;6.38;;;1.60;;
13421;SDS011;6782;55.904;13.396;2022-07-10T07:45:11;5.82;;;1.75;;
13421;SDS011;6782;55.904;13.396;2022-07-10T07:48:00;6.80;;;2.10;;
13421;SDS011;6782;55.904;13.396;2022-07-10T07:50:48;4.55;;;1.90;;
13421;SDS011;6782;55.904;13.396;2022-07-10T07:53:35;6.93;;;1.80;;
13421;SDS011;6782;55.904;13.396;2022-07-10T07:56:22;4.68;;;1.63;;
13421;SDS011;6782;55.904;13.396;2022-07-10T07:59:09;6.05;;;1.73;;
13421;SDS011;6782;55.904;13.396;2022-07-10T08:01:58;5.45;;;1.67;;
13421;SDS011;6782;55.904;13.396;2022-07-10T08:04:46;4.75;;;1.55;;
13421;SDS011;6782;55.904;13.396;2022-07-10T08:07:34;6.40;;;1.70;;
13421;SDS011;6782;55.904;13.396;2022-07-10T08:10:23;4.07;;;1.27;;
13421;SDS011;6782;55.904;13.396;2022-07-10T08:13:12;3.67;;;1.20;;
13421;SDS011;6782;55.904;13.396;2022-07-10T08:15:59;3.35;;;1.27;;
13421;SDS011;6782;55.904;13.396;2022-07-10T08:18:45;1.83;;;0.98;;
13421;SDS011;6782;55.904;13.396;2022-07-10T08:21:34;1.95;;;0.98;;
13421;SDS011;6782;55.904;13.396;2022-07-10T08:24:21;3.00;;;0.90;;
13421;SDS011;6782;55.904;13.396;2022-07-10T08:27:08;1.63;;;1.20;;
13421;SDS011;6782;55.904;13.396;2022-07-10T08:29:55;2.67;;;1.20;;
13421;SDS011;6782;55.904;13.396;2022-07-10T08:32:42;3.28;;;1.10;;
13421;SDS011;6782;55.904;13.396;2022-07-10T08:35:29;2.60;;;1.05;;
13421;SDS011;6782;55.904;13.396;2022-07-10T08:38:18;3.92;;;1.00;;
13421;SDS011;6782;55.904;13.396;2022-07-10T08:41:05;1.88;;;1.10;;
13421;SDS011;6782;55.904;13.396;2022-07-10T08:43:52;1.58;;;1.00;;
13421;SDS011;6782;55.904;13.396;2022-07-10T08:46:39;2.58;;;0.95;;
13421;SDS011;6782;55.904;13.396;2022-07-10T08:49:27;0.77;;;0.77;;
13421;SDS011;6782;55.904;13.396;2022-07-10T08:52:30;1.77;;;1.00;;
13421;SDS011;6782;55.904;13.396;2022-07-10T08:55:22;1.25;;;0.90;;
13421;SDS011;6782;55.904;13.396;2022-07-10T08:58:10;0.98;;;0.88;;
13421;SDS011;6782;55.904;13.396;2022-07-10T09:00:59;1.52;;;1.10;;
13421;SDS011;6782;55.904;13.396;2022-07-10T09:03:46;2.03;;;1.00;;
13421;SDS011;6782;55.904;13.396;2022-07-10T09:06:33;1.30;;;0.75;;
13421;SDS011;6782;55.904;13.396;2022-07-10T09:09:20;1.13;;;0.90;;
13421;SDS011;6782;55.904;13.396;2022-07-10T09:12:10;1.48;;;0.80;;
13421;SDS011;6782;55.904;13.396;2022-07-10T09:15:06;1.33;;;0.77;;
13421;SDS011;6782;55.904;13.396;2022-07-10T09:18:02;0.80;;;0.70;;
13421;SDS011;6782;55.904;13.396;2022-07-10T09:20:52;1.38;;;1.10;;
13421;SDS011;6782;55.904;13.396;2022-07-10T09:23:39;0.77;;;0.70;;
13421;SDS011;6782;55.904;13.396;2022-07-10T09:26:26;0.60;;;0.60;;
13421;SDS011;6782;55.904;13.396;2022-07-10T09:29:15;2.10;;;0.80;;
13421;SDS011;6782;55.904;13.396;2022-07-10T09:32:03;3.28;;;0.82;;
13421;SDS011;6782;55.904;13.396;2022-07-10T09:34:51;0.60;;;0.60;;
13421;SDS011;6782;55.904;13.396;2022-07-10T09:38:00;1.42;;;0.73;;
13421;SDS011;6782;55.904;13.396;2022-07-10T09:40:47;1.25;;;0.63;;
13421;SDS011;6782;55.904;13.396;2022-07-10T09:43:20;1.40;;;0.73;;
13421;SDS011;6782;55.904;13.396;2022-07-10T09:46:08;1.42;;;0.60;;
13421;SDS011;6782;55.904;13.396;2022-07-10T09:49:02;1.75;;;0.95;;
13421;SDS011;6782;55.904;13.396;2022-07-10T09:51:49;0.68;;;0.65;;
13421;SDS011;6782;55.904;13.396;2022-07-10T09:54:36;1.33;;;0.68;;
13421;SDS011;6782;55.904;13.396;2022-07-10T09:57:24;0.95;;;0.70;;
13421;SDS011;6782;55.904;13.396;2022-07-10T10:00:16;1.45;;;0.77;;
13421;SDS011;6782;55.904;13.396;2022-07-10T10:03:04;0.85;;;0.60;;
13421;SDS011;6782;55.904;13.396;2022-07-10T10:05:53;2.08;;;0.60;;
13421;SDS011;6782;55.904;13.396;2022-07-10T10:08:44;0.75;;;0.70;;
13421;SDS011;6782;55.904;13.396;2022-07-10T10:11:37;1.05;;;0.80;;
13421;SDS011;6782;55.904;13.396;2022-07-10T10:14:26;1.58;;;0.70;;
13421;SDS011;6782;55.904;13.396;2022-07-10T10:17:14;0.63;;;0.60;;
13421;SDS011;6782;55.904;13.396;2022-07-10T10:20:06;1.58;;;0.80;;
13421;SDS011;6782;55.904;13.396;2022-07-10T10:23:12;1.25;;;0.73;;
13421;SDS011;6782;55.904;13.396;2022-07-10T10:26:00;0.88;;;0.60;;
13421;SDS011;6782;55.904;13.396;2022-07-10T10:28:47;1.42;;;0.70;;
13421;SDS011;6782;55.904;13.396;2022-07-10T10:31:35;2.63;;;0.95;;
13421;SDS011;6782;55.904;13.396;2022-07-10T10:37:32;1.35;;;0.73;;
13421;SDS011;6782;55.904;13.396;2022-07-10T10:40:01;1.50;;;0.80;;
13421;SDS011;6782;55.904;13.396;2022-07-10T10:42:31;4.35;;;0.80;;
13421;SDS011;6782;55.904;13.396;2022-07-10T10:47:59;2.80;;;1.10;;
13421;SDS011;6782;55.904;13.396;2022-07-10T10:50:36;4.95;;;1.30;;
13421;SDS011;6782;55.904;13.396;2022-07-10T10:53:05;4.45;;;1.00;;
13421;SDS011;6782;55.904;13.396;2022-07-10T10:55:39;3.47;;;1.00;;
13421;SDS011;6782;55.904;13.396;2022-07-10T10:58:11;3.05;;;1.10;;
13421;SDS011;6782;55.904;13.396;2022-07-10T11:00:42;3.67;;;0.90;;
13421;SDS011;6782;55.904;13.396;2022-07-10T11:05:53;1.77;;;0.88;;
13421;SDS011;6782;55.904;13.396;2022-07-10T11:08:41;0.70;;;0.55;;
13421;SDS011;6782;55.904;13.396;2022-07-10T11:14:08;1.60;;;0.80;;
13421;SDS011;6782;55.904;13.396;2022-07-10T11:16:35;1.38;;;0.77;;
13421;SDS011;6782;55.904;13.396;2022-07-10T11:19:04;0.95;;;0.60;;
13421;SDS011;6782;55.904;13.396;2022-07-10T11:21:33;2.13;;;0.63;;
13421;SDS011;6782;55.904;13.396;2022-07-10T11:24:17;1.40;;;0.60;;
13421;SDS011;6782;55.904;13.396;2022-07-10T11:27:02;0.90;;;0.68;;
13421;SDS011;6782;55.904;13.396;2022-07-10T11:29:56;1.50;;;0.60;;
13421;SDS011;6782;55.904;13.396;2022-07-10T11:32:23;1.00;;;0.80;;
13421;SDS011;6782;55.904;13.396;2022-07-10T11:34:50;1.40;;;0.60;;
13421;SDS011;6782;55.904;13.396;2022-07-10T11:37:17;0.70;;;0.70;;
13421;SDS011;6782;55.904;13.396;2022-07-10T11:39:46;1.02;;;0.45;;
13421;SDS011;6782;55.904;13.396;2022-07-10T11:42:14;0.40;;;0.40;;
13421;SDS011;6782;55.904;13.396;2022-07-10T11:44:41;0.93;;;0.52;;
13421;SDS011;6782;55.904;13.396;2022-07-10T11:47:07;0.63;;;0.63;;
13421;SDS011;6782;55.904;13.396;2022-07-10T11:49:35;0.50;;;0.50;;
13421;SDS011;6782;55.904;13.396;2022-07-10T11:52:10;1.50;;;0.50;;
13421;SDS011;6782;55.904;13.396;2022-07-10T11:54:37;0.77;;;0.60;;
13421;SDS011;6782;55.904;13.396;2022-07-10T11:57:08;0.50;;;0.50;;
13421;SDS011;6782;55.904;13.396;2022-07-10T11:59:53;0.47;;;0.40;;
13421;SDS011;6782;55.904;13.396;2022-07-10T12:02:40;1.33;;;0.50;;
13421;SDS011;6782;55.904;13.396;2022-07-10T12:05:31;0.45;;;0.40;;
13421;SDS011;6782;55.904;13.396;2022-07-10T12:08:19;0.30;;;0.30;;
13421;SDS011;6782;55.904;13.396;2022-07-10T12:11:10;0.32;;;0.30;;
13421;SDS011;6782;55.904;13.396;2022-07-10T12:14:09;0.30;;;0.30;;
13421;SDS011;6782;55.904;13.396;2022-07-10T12:16:59;0.35;;;0.35;;
13421;SDS011;6782;55.904;13.396;2022-07-10T12:19:47;0.65;;;0.40;;
13421;SDS011;6782;55.904;13.396;2022-07-10T12:22:36;0.40;;;0.40;;
13421;SDS011;6782;55.904;13.396;2022-07-10T12:25:23;0.47;;;0.40;;
13421;SDS011;6782;55.904;13.396;2022-07-10T12:28:11;1.65;;;0.50;;
13421;SDS011;6782;55.904;13.396;2022-07-10T12:30:59;1.42;;;0.50;;
13421;SDS011;6782;55.904;13.396;2022-07-10T12:33:49;1.45;;;0.40;;
13421;SDS011;6782;55.904;13.396;2022-07-10T12:36:41;0.40;;;0.40;;
13421;SDS011;6782;55.904;13.396;2022-07-10T12:39:30;0.82;;;0.30;;
13421;SDS011;6782;55.904;13.396;2022-07-10T12:42:24;0.43;;;0.43;;
13421;SDS011;6782;55.904;13.396;2022-07-10T12:45:11;2.13;;;0.50;;
13421;SDS011;6782;55.904;13.396;2022-07-10T12:48:01;0.40;;;0.40;;
13421;SDS011;6782;55.904;13.396;2022-07-10T12:50:51;2.58;;;0.52;;
13421;SDS011;6782;55.904;13.396;2022-07-10T12:53:44;0.57;;;0.50;;
13421;SDS011;6782;55.904;13.396;2022-07-10T12:56:32;1.38;;;0.40;;
13421;SDS011;6782;55.904;13.396;2022-07-10T12:59:20;0.68;;;0.60;;
13421;SDS011;6782;55.904;13.396;2022-07-10T13:02:15;0.57;;;0.45;;
13421;SDS011;6782;55.904;13.396;2022-07-10T13:05:05;1.08;;;0.50;;
13421;SDS011;6782;55.904;13.396;2022-07-10T13:07:52;1.33;;;0.50;;
13421;SDS011;6782;55.904;13.396;2022-07-10T13:10:51;0.40;;;0.40;;
13421;SDS011;6782;55.904;13.396;2022-07-10T13:13:39;2.72;;;0.63;;
13421;SDS011;6782;55.904;13.396;2022-07-10T13:16:26;1.80;;;0.50;;
13421;SDS011;6782;55.904;13.396;2022-07-10T13:19:13;0.80;;;0.50;;
13421;SDS011;6782;55.904;13.396;2022-07-10T13:22:02;1.20;;;0.63;;
13421;SDS011;6782;55.904;13.396;2022-07-10T13:24:49;1.02;;;0.40;;
13421;SDS011;6782;55.904;13.396;2022-07-10T13:27:36;0.73;;;0.60;;
13421;SDS011;6782;55.904;13.396;2022-07-10T13:30:24;1.80;;;0.57;;
13421;SDS011;6782;55.904;13.396;2022-07-10T13:33:11;0.40;;;0.40;;
13421;SDS011;6782;55.904;13.396;2022-07-10T13:35:59;1.08;;;0.52;;
13421;SDS011;6782;55.904;13.396;2022-07-10T13:38:48;0.57;;;0.50;;
13421;SDS011;6782;55.904;13.396;2022-07-10T13:41:37;0.80;;;0.38;;
13421;SDS011;6782;55.904;13.396;2022-07-10T13:44:24;2.10;;;0.50;;
13421;SDS011;6782;55.904;13.396;2022-07-10T13:47:11;3.15;;;0.82;;
13421;SDS011;6782;55.904;13.396;2022-07-10T13:49:58;0.63;;;0.50;;
13421;SDS011;6782;55.904;13.396;2022-07-10T13:52:46;3.90;;;0.70;;
13421;SDS011;6782;55.904;13.396;2022-07-10T13:55:34;1.20;;;0.65;;
13421;SDS011;6782;55.904;13.396;2022-07-10T13:58:21;0.75;;;0.50;;
13421;SDS011;6782;55.904;13.396;2022-07-10T14:01:08;0.80;;;0.50;;
13421;SDS011;6782;55.904;13.396;2022-07-10T14:03:55;0.55;;;0.40;;
13421;SDS011;6782;55.904;13.396;2022-07-10T14:06:42;2.10;;;0.70;;
13421;SDS011;6782;55.904;13.396;2022-07-10T14:09:29;1.02;;;0.60;;
13421;SDS011;6782;55.904;13.396;2022-07-10T14:12:18;0.60;;;0.40;;
13421;SDS011;6782;55.904;13.396;2022-07-10T14:15:05;2.75;;;0.68;;
13421;SDS011;6782;55.904;13.396;2022-07-10T14:17:53;2.10;;;0.75;;
13421;SDS011;6782;55.904;13.396;2022-07-10T14:20:41;1.52;;;0.50;;
13421;SDS011;6782;55.904;13.396;2022-07-10T14:23:45;0.90;;;0.60;;
13421;SDS011;6782;55.904;13.396;2022-07-10T14:26:34;0.60;;;0.60;;
13421;SDS011;6782;55.904;13.396;2022-07-10T14:29:22;0.65;;;0.40;;
13421;SDS011;6782;55.904;13.396;2022-07-10T14:32:09;1.88;;;0.60;;
13421;SDS011;6782;55.904;13.396;2022-07-10T14:34:56;2.17;;;0.77;;
13421;SDS011;6782;55.904;13.396;2022-07-10T14:37:43;1.98;;;0.70;;
13421;SDS011;6782;55.904;13.396;2022-07-10T14:40:30;2.05;;;0.57;;
13421;SDS011;6782;55.904;13.396;2022-07-10T14:43:17;1.52;;;0.60;;
13421;SDS011;6782;55.904;13.396;2022-07-10T14:46:05;1.42;;;0.50;;
13421;SDS011;6782;55.904;13.396;2022-07-10T14:48:52;1.65;;;0.70;;
13421;SDS011;6782;55.904;13.396;2022-07-10T14:51:39;1.52;;;0.70;;
13421;SDS011;6782;55.904;13.396;2022-07-10T14:54:27;5.43;;;0.82;;
13421;SDS011;6782;55.904;13.396;2022-07-10T14:57:14;1.25;;;0.63;;
13421;SDS011;6782;55.904;13.396;2022-07-10T15:00:01;1.63;;;0.70;;
13421;SDS011;6782;55.904;13.396;2022-07-10T15:02:50;0.57;;;0.45;;
13421;SDS011;6782;55.904;13.396;2022-07-10T15:05:37;0.73;;;0.52;;
13421;SDS011;6782;55.904;13.396;2022-07-10T15:08:24;1.08;;;0.60;;
13421;SDS011;6782;55.904;13.396;2022-07-10T15:11:11;1.23;;;0.80;;
13421;SDS011;6782;55.904;13.396;2022-07-10T15:13:57;1.17;;;0.65;;
13421;SDS011;6782;55.904;13.396;2022-07-10T15:16:45;0.98;;;0.88;;
13421;SDS011;6782;55.904;13.396;2022-07-10T15:19:33;1.35;;;0.60;;
13421;SDS011;6782;55.904;13.396;2022-07-10T15:22:20;3.28;;;0.60;;
13421;SDS011;6782;55.904;13.396;2022-07-10T15:25:08;1.00;;;0.57;;
13421;SDS011;6782;55.904;13.396;2022-07-10T15:27:55;0.93;;;0.57;;
13421;SDS011;6782;55.904;13.396;2022-07-10T15:30:42;0.50;;;0.50;;
13421;SDS011;6782;55.904;13.396;2022-07-10T15:33:29;1.42;;;0.75;;
13421;SDS011;6782;55.904;13.396;2022-07-10T15:36:17;1.98;;;0.70;;
13421;SDS011;6782;55.904;13.396;2022-07-10T15:39:06;2.13;;;0.60;;
13421;SDS011;6782;55.904;13.396;2022-07-10T15:41:53;2.00;;;0.60;;
13421;SDS011;6782;55.904;13.396;2022-07-10T15:44:40;1.20;;;0.60;;
13421;SDS011;6782;55.904;13.396;2022-07-10T15:47:27;0.85;;;0.60;;
13421;SDS011;6782;55.904;13.396;2022-07-10T15:50:15;0.85;;;0.60;;
13421;SDS011;6782;55.904;13.396;2022-07-10T15:53:03;1.55;;;0.70;;
13421;SDS011;6782;55.904;13.396;2022-07-10T15:55:50;1.52;;;0.70;;
13421;SDS011;6782;55.904;13.396;2022-07-10T15:58:37;2.45;;;0.77;;
13421;SDS011;6782;55.904;13.396;2022-07-10T16:01:24;1.45;;;0.77;;
13421;SDS011;6782;55.904;13.396;2022-07-10T16:04:11;2.53;;;0.73;;
13421;SDS011;6782;55.904;13.396;2022-07-10T16:06:58;1.27;;;0.52;;
13421;SDS011;6782;55.904;13.396;2022-07-10T16:09:47;0.90;;;0.60;;
13421;SDS011;6782;55.904;13.396;2022-07-10T16:12:34;1.30;;;0.70;;
13421;SDS011;6782;55.904;13.396;2022-07-10T16:15:22;2.97;;;0.80;;
13421;SDS011;6782;55.904;13.396;2022-07-10T16:18:09;1.00;;;0.70;;
13421;SDS011;6782;55.904;13.396;2022-07-10T16:20:56;0.98;;;0.60;;
13421;SDS011;6782;55.904;13.396;2022-07-10T16:23:43;2.70;;;0.57;;
13421;SDS011;6782;55.904;13.396;2022-07-10T16:26:31;2.08;;;0.80;;
13421;SDS011;6782;55.904;13.396;2022-07-10T16:29:00;2.63;;;0.70;;
13421;SDS011;6782;55.904;13.396;2022-07-10T16:31:27;1.10;;;0.60;;
13421;SDS011;6782;55.904;13.396;2022-07-10T16:33:54;2.42;;;0.60;;
13421;SDS011;6782;55.904;13.396;2022-07-10T16:36:23;3.08;;;0.90;;
13421;SDS011;6782;55.904;13.396;2022-07-10T16:38:50;1.52;;;0.60;;
13421;SDS011;6782;55.904;13.396;2022-07-10T16:41:18;1.77;;;0.60;;
13421;SDS011;6782;55.904;13.396;2022-07-10T16:43:46;1.77;;;0.60;;
13421;SDS011;6782;55.904;13.396;2022-07-10T16:46:14;1.45;;;0.40;;
13421;SDS011;6782;55.904;13.396;2022-07-10T16:48:41;0.90;;;0.30;;